Time;durP1;ratioP1;P1;durP2;ratioP2;P2;SDS_P1;SDS_P2;PMS_P1;PMS_P2;Temp;Humidity;BMP_temperature;BMP_pressure;BME280_temperature;BME280_humidity;BME280_pressure;Samples;Min_cycle;Max_cycle;Signal;HPM_P1;HPM_P2
2021/12/16 00:07:19;;;;;;;27.50;16.30;;;11.80;98.40;;;;;;5013189;28;20061;-66
2021/12/16 00:10:03;;;;;;;27.17;15.75;;;11.70;98.40;;;;;;5021140;28;20029;-65
2021/12/16 00:31:50;;;;;;;27.75;16.20;;;11.70;98.60;;;;;;5031546;28;20033;-65
2021/12/16 00:34:16;;;;;;;27.95;16.75;;;11.70;98.50;;;;;;5031048;28;20037;-65
2021/12/16 00:36:44;;;;;;;32.60;17.08;;;11.70;98.50;;;;;;5032452;28;20036;-65
2021/12/16 00:39:16;;;;;;;29.65;16.55;;;11.70;98.50;;;;;;5032064;28;20042;-66
2021/12/16 00:41:45;;;;;;;32.20;17.38;;;11.70;98.50;;;;;;5030434;28;20539;-66
2021/12/16 00:44:25;;;;;;;27.52;15.57;;;11.70;98.60;;;;;;5031078;28;20029;-65
2021/12/16 00:49:40;;;;;;;31.70;16.45;;;11.70;98.60;;;;;;5030809;28;20187;-65
2021/12/16 00:55:21;;;;;;;28.33;16.63;;;11.70;98.50;;;;;;5030611;28;20056;-65
2021/12/16 00:57:50;;;;;;;28.88;16.45;;;11.70;98.50;;;;;;5029990;28;20052;-65
2021/12/16 01:00:16;;;;;;;31.17;17.48;;;11.60;98.50;;;;;;5031053;28;20488;-65
2021/12/16 01:03:01;;;;;;;29.35;16.17;;;11.70;98.50;;;;;;5032020;28;20104;-65
2021/12/16 01:08:36;;;;;;;24.90;14.75;;;11.70;98.50;;;;;;5031312;28;20041;-66
2021/12/16 01:33:44;;;;;;;26.45;14.98;;;11.60;98.70;;;;;;5031547;28;20052;-66
2021/12/16 01:36:44;;;;;;;28.48;16.13;;;11.60;98.70;;;;;;5030726;28;20041;-66
2021/12/16 01:39:59;;;;;;;27.27;15.50;;;11.50;98.70;;;;;;5030151;28;20073;-66
2021/12/16 01:42:49;;;;;;;29.15;14.93;;;11.50;98.80;;;;;;5015434;28;20025;-66
2021/12/16 01:48:26;;;;;;;29.50;16.80;;;11.50;98.90;;;;;;5032180;28;20032;-66
2021/12/16 01:50:50;;;;;;;26.00;15.32;;;11.40;98.90;;;;;;5033111;28;20481;-66
2021/12/16 01:53:51;;;;;;;29.23;15.30;;;11.40;99.00;;;;;;5032287;28;20049;-66
2021/12/16 01:56:25;;;;;;;26.65;16.48;;;11.40;99.20;;;;;;5025974;28;20437;-66
2021/12/16 01:58:52;;;;;;;29.63;15.35;;;11.40;99.10;;;;;;5030881;28;20052;-66
2021/12/16 02:01:21;;;;;;;26.42;15.48;;;11.40;99.10;;;;;;5031094;28;20025;-66
2021/12/16 02:03:53;;;;;;;28.52;14.95;;;11.40;99.10;;;;;;5030222;28;20068;-66
2021/12/16 02:06:46;;;;;;;26.20;15.88;;;11.40;99.10;;;;;;5030348;28;20488;-66
2021/12/16 02:09:29;;;;;;;30.38;17.45;;;11.50;99.10;;;;;;5030950;28;20080;-66
2021/12/16 02:12:03;;;;;;;30.73;15.68;;;11.40;99.00;;;;;;5011050;28;20029;-66
2021/12/16 02:28:45;;;;;;;20.00;12.55;;;11.40;98.80;;;;;;5026943;28;20047;-66
2021/12/16 02:31:34;;;;;;;20.25;10.90;;;11.40;98.80;;;;;;5031557;28;20099;-66
2021/12/16 02:36:45;;;;;;;21.77;11.32;;;11.30;98.80;;;;;;5033258;28;20030;-66
2021/12/16 02:39:21;;;;;;;17.70;10.43;;;11.30;98.80;;;;;;5033814;28;20042;-66
2021/12/16 02:41:51;;;;;;;18.75;11.68;;;11.30;98.70;;;;;;5024876;28;20029;-66
2021/12/16 02:49:54;;;;;;;17.70;10.10;;;11.20;98.60;;;;;;5034619;28;20088;-66
2021/12/16 02:52:23;;;;;;;20.00;9.80;;;11.30;98.60;;;;;;5033575;28;20030;-66
2021/12/16 02:54:49;;;;;;;16.65;10.10;;;11.20;98.50;;;;;;5033099;28;20033;-66
2021/12/16 02:57:15;;;;;;;22.23;10.13;;;11.20;98.50;;;;;;5032287;28;20092;-66
2021/12/16 02:59:41;;;;;;;16.05;9.35;;;11.20;98.50;;;;;;5032800;28;20033;-66
2021/12/16 03:02:12;;;;;;;17.88;9.52;;;11.20;98.40;;;;;;5032341;28;20029;-66
2021/12/16 03:04:40;;;;;;;21.52;9.98;;;11.20;98.30;;;;;;5034233;28;20108;-66
2021/12/16 03:07:09;;;;;;;17.50;9.50;;;11.20;98.30;;;;;;5033022;28;20061;-66
2021/12/16 03:15:02;;;;;;;19.27;10.07;;;11.20;98.20;;;;;;5020476;28;19931;-66
2021/12/16 03:17:41;;;;;;;15.98;8.43;;;11.10;98.10;;;;;;5032095;28;20048;-66
2021/12/16 03:20:25;;;;;;;17.08;8.80;;;11.10;98.20;;;;;;5034116;28;20108;-66
2021/12/16 03:23:11;;;;;;;14.53;8.43;;;11.10;98.20;;;;;;5031366;28;20037;-66
2021/12/16 03:26:06;;;;;;;17.27;10.30;;;11.10;98.30;;;;;;5032636;28;20518;-66
2021/12/16 03:28:59;;;;;;;14.85;8.65;;;11.10;98.30;;;;;;5033280;28;20038;-66
2021/12/16 03:32:05;;;;;;;15.75;9.32;;;11.10;98.30;;;;;;5031804;28;20029;-66
2021/12/16 03:34:30;;;;;;;12.75;8.82;;;11.10;98.20;;;;;;5028401;28;20037;-66
2021/12/16 03:37:18;;;;;;;14.43;8.88;;;11.10;98.20;;;;;;5030673;28;20037;-66
2021/12/16 03:39:56;;;;;;;13.52;7.63;;;11.20;98.20;;;;;;5033109;28;20041;-66
2021/12/16 03:42:25;;;;;;;13.15;7.97;;;11.20;98.20;;;;;;5032531;28;20037;-66
2021/12/16 03:44:57;;;;;;;14.60;8.90;;;11.20;98.20;;;;;;5032024;28;20037;-66
2021/12/16 03:47:40;;;;;;;14.23;8.63;;;11.20;98.10;;;;;;5032361;28;20036;-66
2021/12/16 03:50:14;;;;;;;24.02;10.00;;;11.20;98.10;;;;;;5032078;28;20036;-66
2021/12/16 03:52:40;;;;;;;14.45;8.57;;;11.10;98.10;;;;;;5032009;28;20053;-66
2021/12/16 03:55:07;;;;;;;16.33;8.73;;;11.10;98.10;;;;;;5032897;28;20076;-66
2021/12/16 03:57:34;;;;;;;13.55;8.85;;;11.10;98.10;;;;;;5030398;28;20465;-65
2021/12/16 03:59:59;;;;;;;17.02;9.27;;;11.10;98.00;;;;;;5032865;28;20064;-65
2021/12/16 04:02:31;;;;;;;17.52;9.23;;;11.10;98.10;;;;;;5028457;28;20440;-65
2021/12/16 04:04:58;;;;;;;17.48;8.82;;;11.10;98.10;;;;;;5032289;28;20033;-66
2021/12/16 04:07:28;;;;;;;18.30;8.65;;;11.10;98.10;;;;;;5029968;28;20041;-65
2021/12/16 04:09:54;;;;;;;14.50;9.05;;;11.10;98.00;;;;;;5032977;28;20033;-65
2021/12/16 04:12:21;;;;;;;17.58;9.18;;;11.10;98.00;;;;;;5030668;28;20026;-65
2021/12/16 04:14:49;;;;;;;14.88;8.65;;;11.10;98.00;;;;;;5031908;28;20507;-65
2021/12/16 04:17:16;;;;;;;13.65;8.70;;;11.10;98.00;;;;;;5031402;28;20393;-66
2021/12/16 04:19:42;;;;;;;14.00;8.45;;;11.10;98.00;;;;;;5030939;28;20036;-66
2021/12/16 04:22:16;;;;;;;12.05;7.40;;;11.00;98.00;;;;;;5030485;28;20022;-65
2021/12/16 04:24:44;;;;;;;14.85;8.65;;;11.00;98.10;;;;;;5029223;28;20388;-65
2021/12/16 04:27:10;;;;;;;15.05;9.15;;;11.00;98.10;;;;;;5030931;28;20036;-66
2021/12/16 04:29:37;;;;;;;14.15;9.07;;;11.00;98.10;;;;;;5027420;28;20041;-65
2021/12/16 04:32:03;;;;;;;17.33;9.32;;;11.10;98.10;;;;;;5021918;28;20028;-65
2021/12/16 04:34:29;;;;;;;15.88;7.95;;;11.10;98.10;;;;;;5032534;28;20033;-65
2021/12/16 04:36:57;;;;;;;14.77;9.05;;;11.10;98.10;;;;;;5030769;28;20100;-65
2021/12/16 04:39:25;;;;;;;16.98;9.00;;;11.10;98.00;;;;;;5032146;28;20033;-65
2021/12/16 04:41:53;;;;;;;13.80;8.60;;;11.10;98.00;;;;;;5030185;28;20036;-65
2021/12/16 04:44:19;;;;;;;14.25;8.30;;;11.10;98.00;;;;;;5029923;28;20507;-65
2021/12/16 04:46:46;;;;;;;15.75;9.00;;;11.10;98.00;;;;;;5030744;28;20029;-65
2021/12/16 04:49:12;;;;;;;15.05;9.32;;;11.10;98.00;;;;;;5031717;28;20025;-65
2021/12/16 04:51:41;;;;;;;14.13;8.82;;;11.10;98.00;;;;;;5028351;28;20033;-65
2021/12/16 04:54:07;;;;;;;16.13;9.50;;;11.10;98.00;;;;;;5027077;28;20188;-65
2021/12/16 04:56:34;;;;;;;14.63;8.88;;;11.20;98.00;;;;;;5019980;28;20029;-65
2021/12/16 04:59:03;;;;;;;15.90;8.98;;;11.20;98.10;;;;;;5031286;28;20073;-65
2021/12/16 05:01:29;;;;;;;15.48;9.25;;;11.20;98.10;;;;;;5031571;28;20025;-65
2021/12/16 05:03:56;;;;;;;16.17;9.98;;;11.20;98.10;;;;;;5030741;28;20441;-65
2021/12/16 05:06:22;;;;;;;14.85;8.45;;;11.20;98.10;;;;;;5030159;28;20045;-65
2021/12/16 05:08:47;;;;;;;17.35;10.57;;;11.20;98.10;;;;;;5031190;28;20064;-65
2021/12/16 05:11:15;;;;;;;16.48;8.98;;;11.10;98.10;;;;;;5028561;28;20026;-64
2021/12/16 05:13:44;;;;;;;15.65;9.73;;;11.10;98.20;;;;;;5028580;28;20071;-65
2021/12/16 05:16:10;;;;;;;15.18;9.80;;;11.20;98.20;;;;;;5029558;28;20468;-65
2021/12/16 05:18:38;;;;;;;18.67;9.45;;;11.10;98.10;;;;;;5030793;28;20037;-67
2021/12/16 05:21:25;;;;;;;14.77;8.88;;;11.10;98.20;;;;;;5030114;28;20030;-67
2021/12/16 05:26:35;;;;;;;19.15;10.52;;;11.10;98.20;;;;;;5029385;28;20076;-67
2021/12/16 05:29:02;;;;;;;16.42;9.93;;;11.20;98.20;;;;;;5031791;28;20041;-65
2021/12/16 05:31:30;;;;;;;17.73;10.07;;;11.10;98.20;;;;;;5029149;28;20104;-65
2021/12/16 05:33:58;;;;;;;19.00;10.10;;;11.10;98.30;;;;;;5030650;28;20033;-65
2021/12/16 05:36:24;;;;;;;25.65;10.15;;;11.10;98.40;;;;;;5030192;28;20111;-65
2021/12/16 05:38:50;;;;;;;16.88;10.52;;;11.10;98.50;;;;;;5029498;28;20042;-66
2021/12/16 05:41:19;;;;;;;16.33;9.40;;;11.10;98.60;;;;;;5030521;28;20027;-65
2021/12/16 05:43:45;;;;;;;17.73;9.52;;;11.00;98.70;;;;;;5030468;28;20080;-65
2021/12/16 05:46:13;;;;;;;15.95;9.10;;;11.00;98.80;;;;;;5030326;28;20033;-66
2021/12/16 05:48:42;;;;;;;19.67;10.05;;;11.00;98.90;;;;;;5029044;28;20037;-66
2021/12/16 05:51:23;;;;;;;19.52;10.38;;;11.00;98.90;;;;;;5030390;28;20427;-65
2021/12/16 05:53:51;;;;;;;16.67;10.05;;;11.00;99.00;;;;;;5030138;28;20026;-66
2021/12/16 05:56:17;;;;;;;16.60;10.65;;;11.00;99.10;;;;;;5027953;28;20037;-67
2021/12/16 05:58:43;;;;;;;17.23;9.77;;;11.00;99.20;;;;;;5030687;28;20069;-66
2021/12/16 06:01:16;;;;;;;16.75;9.98;;;11.00;99.30;;;;;;5029615;28;20435;-66
2021/12/16 06:03:42;;;;;;;17.85;9.32;;;11.00;99.30;;;;;;5030320;28;20029;-66
2021/12/16 06:06:08;;;;;;;15.45;8.85;;;10.90;99.40;;;;;;5030178;28;20034;-66
2021/12/16 06:08:34;;;;;;;19.85;10.40;;;10.90;99.40;;;;;;5027871;28;20385;-66
2021/12/16 06:13:34;;;;;;;17.60;9.60;;;10.80;99.50;;;;;;5031310;28;20079;-66
2021/12/16 06:27:02;;;;;;;17.90;10.13;;;10.70;99.60;;;;;;5029603;28;19909;-66
2021/12/16 06:29:28;;;;;;;15.93;9.20;;;10.60;99.70;;;;;;5030282;28;20092;-66
2021/12/16 06:31:54;;;;;;;16.90;9.98;;;10.60;99.80;;;;;;5029276;28;20037;-66
2021/12/16 06:34:20;;;;;;;17.30;9.27;;;10.60;99.90;;;;;;5030302;28;20120;-67
2021/12/16 06:36:46;;;;;;;18.15;9.68;;;10.60;99.90;;;;;;5029390;28;20037;-66
2021/12/16 06:39:12;;;;;;;15.40;10.00;;;10.60;99.90;;;;;;5029212;28;20042;-67
2021/12/16 06:41:38;;;;;;;19.23;9.45;;;10.70;99.90;;;;;;5028289;28;20048;-66
2021/12/16 06:44:14;;;;;;;16.10;10.10;;;10.70;99.90;;;;;;5030054;28;20091;-67
2021/12/16 06:46:42;;;;;;;13.38;8.85;;;10.70;99.90;;;;;;5029593;28;20030;-67
2021/12/16 06:49:10;;;;;;;17.17;9.68;;;10.70;99.90;;;;;;5028791;28;20034;-67
2021/12/16 06:51:44;;;;;;;17.23;9.73;;;10.70;99.90;;;;;;5029946;28;20042;-67
2021/12/16 06:54:15;;;;;;;20.83;10.23;;;10.70;99.90;;;;;;5030656;28;20026;-67
2021/12/16 06:57:11;;;;;;;18.40;10.05;;;10.70;99.90;;;;;;5029573;28;20461;-66
2021/12/16 06:59:42;;;;;;;19.88;11.40;;;10.70;99.90;;;;;;5010589;28;20077;-66
2021/12/16 07:02:19;;;;;;;19.17;10.63;;;10.70;99.90;;;;;;5022950;28;20017;-66
2021/12/16 07:04:45;;;;;;;20.92;11.63;;;10.70;99.90;;;;;;5030994;28;20061;-66
2021/12/16 07:07:13;;;;;;;15.75;9.80;;;10.70;99.90;;;;;;5033043;28;20037;-66
2021/12/16 07:09:38;;;;;;;18.08;10.15;;;10.80;99.90;;;;;;5033495;28;20026;-66
2021/12/16 07:12:05;;;;;;;19.48;10.57;;;10.80;99.90;;;;;;5032132;28;20033;-65
2021/12/16 07:14:38;;;;;;;18.92;11.23;;;10.80;99.90;;;;;;5033730;28;20040;-65
2021/12/16 07:17:15;;;;;;;18.17;11.18;;;10.80;99.90;;;;;;5031347;28;20036;-64
2021/12/16 07:19:43;;;;;;;19.52;11.23;;;10.90;99.90;;;;;;5033600;28;20037;-64
2021/12/16 07:22:10;;;;;;;20.63;11.60;;;10.80;99.90;;;;;;5032656;28;20034;-65
2021/12/16 07:24:36;;;;;;;21.50;12.30;;;10.80;99.90;;;;;;5032621;28;20044;-66
2021/12/16 07:27:03;;;;;;;16.38;10.40;;;10.80;99.90;;;;;;5031998;28;20473;-64
2021/12/16 07:29:29;;;;;;;17.13;10.07;;;10.80;99.90;;;;;;5033447;28;20029;-65
2021/12/16 07:31:55;;;;;;;21.95;10.73;;;10.80;99.90;;;;;;5031416;28;20428;-65
2021/12/16 07:34:21;;;;;;;17.38;10.25;;;10.80;99.90;;;;;;5023194;28;20022;-64
2021/12/16 07:36:48;;;;;;;17.58;9.82;;;10.80;99.90;;;;;;5030876;28;20563;-64
2021/12/16 07:39:16;;;;;;;17.25;10.30;;;10.90;99.90;;;;;;5033109;28;20055;-65
2021/12/16 07:41:46;;;;;;;18.05;9.90;;;10.80;99.90;;;;;;5020537;28;20092;-65
2021/12/16 07:44:12;;;;;;;19.50;9.65;;;10.80;99.90;;;;;;5032613;28;20022;-64
2021/12/16 07:46:40;;;;;;;18.40;10.00;;;10.80;99.90;;;;;;5032412;28;20105;-65
2021/12/16 07:49:07;;;;;;;16.58;9.55;;;10.90;99.90;;;;;;5031489;28;20021;-65
2021/12/16 07:51:32;;;;;;;20.02;11.10;;;10.80;99.90;;;;;;5027136;28;20095;-64
2021/12/16 07:53:58;;;;;;;17.33;8.93;;;10.80;99.90;;;;;;5013493;28;20033;-64
2021/12/16 07:56:24;;;;;;;17.50;9.43;;;10.70;99.90;;;;;;5016643;28;20949;-64
2021/12/16 07:58:49;;;;;;;15.02;8.77;;;10.70;99.90;;;;;;5014899;28;20531;-64
2021/12/16 08:01:15;;;;;;;18.10;9.57;;;10.80;99.90;;;;;;5018029;28;20075;-64
2021/12/16 08:03:42;;;;;;;19.67;9.88;;;10.70;99.90;;;;;;5015290;28;20362;-64
2021/12/16 08:06:12;;;;;;;14.68;8.73;;;10.70;99.90;;;;;;5016304;28;20108;-64
2021/12/16 08:08:38;;;;;;;15.10;8.63;;;10.80;99.90;;;;;;5015339;28;20417;-65
2021/12/16 08:11:06;;;;;;;22.75;9.40;;;10.80;99.90;;;;;;5016339;28;20040;-64
2021/12/16 08:13:32;;;;;;;16.52;8.95;;;10.70;99.90;;;;;;5014654;28;20029;-64
2021/12/16 08:15:59;;;;;;;14.68;8.32;;;10.70;99.90;;;;;;5016577;28;20025;-64
2021/12/16 08:18:25;;;;;;;17.27;8.52;;;10.80;99.90;;;;;;5014307;28;20038;-65
2021/12/16 08:20:50;;;;;;;15.30;8.25;;;10.90;99.90;;;;;;5015811;28;20029;-64
2021/12/16 08:23:16;;;;;;;17.17;8.80;;;10.90;99.90;;;;;;5014858;28;20145;-64
2021/12/16 08:25:42;;;;;;;16.70;8.35;;;11.00;99.90;;;;;;5016687;28;20028;-64
2021/12/16 08:28:08;;;;;;;17.02;7.95;;;11.00;99.90;;;;;;5015667;28;20887;-64
2021/12/16 08:30:40;;;;;;;12.98;7.72;;;11.00;99.90;;;;;;5015695;28;20116;-64
2021/12/16 08:33:09;;;;;;;20.48;10.95;;;11.10;99.90;;;;;;5014948;28;20075;-64
2021/12/16 08:35:40;;;;;;;17.60;8.23;;;11.00;99.90;;;;;;5014859;28;20567;-63
2021/12/16 08:38:06;;;;;;;15.90;7.72;;;11.10;99.90;;;;;;5014153;28;20746;-64
2021/12/16 08:40:32;;;;;;;14.75;8.02;;;11.10;99.90;;;;;;5015488;28;20131;-64
2021/12/16 08:42:58;;;;;;;15.30;8.35;;;11.10;99.90;;;;;;5015355;28;20706;-64
2021/12/16 08:45:27;;;;;;;14.43;7.40;;;11.10;99.90;;;;;;5013652;28;20071;-64
2021/12/16 08:47:55;;;;;;;13.93;8.90;;;11.10;99.90;;;;;;5014474;28;20039;-65
2021/12/16 08:50:23;;;;;;;14.57;7.72;;;11.10;99.90;;;;;;5015095;28;20040;-64
2021/12/16 08:52:49;;;;;;;15.13;8.55;;;11.10;99.90;;;;;;5015468;28;20029;-65
2021/12/16 08:55:16;;;;;;;15.57;7.78;;;11.10;99.90;;;;;;5015444;28;20036;-64
2021/12/16 08:57:42;;;;;;;13.43;8.05;;;11.10;99.90;;;;;;5015828;28;20272;-64
2021/12/16 09:00:14;;;;;;;13.60;8.45;;;11.10;99.90;;;;;;5013915;28;20045;-64
2021/12/16 09:02:39;;;;;;;16.27;9.13;;;11.10;99.90;;;;;;5016037;28;20057;-64
2021/12/16 09:05:06;;;;;;;14.35;7.75;;;11.10;99.90;;;;;;5013103;28;20650;-65
2021/12/16 09:07:31;;;;;;;15.35;8.05;;;11.10;99.90;;;;;;5015395;28;20041;-64
2021/12/16 09:09:58;;;;;;;14.95;8.18;;;11.00;99.90;;;;;;5020856;28;20030;-64
2021/12/16 09:14:57;;;;;;;15.82;8.85;;;11.00;99.90;;;;;;5029866;28;20026;-64
2021/12/16 09:17:23;;;;;;;13.15;7.82;;;11.00;99.90;;;;;;5030292;28;20024;-65
2021/12/16 09:19:52;;;;;;;12.68;7.93;;;11.00;99.90;;;;;;5031620;28;20025;-63
2021/12/16 09:22:18;;;;;;;18.27;10.27;;;11.00;99.90;;;;;;5032074;28;20373;-64
2021/12/16 09:24:47;;;;;;;15.35;9.52;;;11.10;99.90;;;;;;5031274;28;20515;-64
2021/12/16 09:27:13;;;;;;;18.00;9.45;;;11.10;99.90;;;;;;5025738;28;20478;-64
2021/12/16 09:29:39;;;;;;;16.98;9.25;;;11.00;99.90;;;;;;5015783;28;20032;-64
2021/12/16 09:32:06;;;;;;;21.25;10.73;;;11.00;99.90;;;;;;5014912;28;20029;-64
2021/12/16 09:34:32;;;;;;;18.52;9.57;;;11.10;99.90;;;;;;5014153;28;20102;-65
2021/12/16 09:36:58;;;;;;;18.60;10.13;;;11.10;99.90;;;;;;5015460;28;20475;-64
2021/12/16 09:39:26;;;;;;;16.98;9.13;;;11.10;99.90;;;;;;5014426;28;20045;-64
2021/12/16 09:41:57;;;;;;;13.98;9.45;;;11.10;99.90;;;;;;5014949;28;20540;-65
2021/12/16 09:44:23;;;;;;;14.70;9.55;;;11.10;99.90;;;;;;5012521;28;20395;-63
2021/12/16 09:46:53;;;;;;;16.17;9.48;;;11.10;99.90;;;;;;5012784;28;20033;-63
2021/12/16 09:49:19;;;;;;;18.45;11.40;;;11.20;99.90;;;;;;5014052;28;20025;-63
2021/12/16 09:51:47;;;;;;;19.70;10.32;;;11.10;99.90;;;;;;5013600;28;20037;-64
2021/12/16 09:54:16;;;;;;;18.67;9.90;;;11.10;99.90;;;;;;5012187;28;20064;-63
2021/12/16 09:56:44;;;;;;;16.20;9.07;;;11.00;99.90;;;;;;5014180;28;20032;-65
2021/12/16 09:59:13;;;;;;;20.30;10.68;;;11.00;99.90;;;;;;5012712;28;20045;-63
2021/12/16 10:01:41;;;;;;;20.42;10.45;;;11.00;99.90;;;;;;5014992;28;20125;-63
2021/12/16 10:04:10;;;;;;;18.35;10.13;;;11.00;99.90;;;;;;5012679;28;20180;-63
2021/12/16 10:06:38;;;;;;;15.23;9.20;;;11.00;99.90;;;;;;5015071;28;20025;-63
2021/12/16 10:09:06;;;;;;;21.13;10.38;;;11.00;99.90;;;;;;5013250;28;20029;-63
2021/12/16 10:11:34;;;;;;;16.58;10.43;;;11.00;99.90;;;;;;5015281;28;22109;-64
2021/12/16 10:14:14;;;;;;;18.00;10.25;;;11.00;99.90;;;;;;5012263;28;20291;-64
2021/12/16 10:19:27;;;;;;;19.65;11.65;;;11.00;99.90;;;;;;5011967;28;20107;-65
2021/12/16 10:21:55;;;;;;;23.85;12.13;;;11.00;99.90;;;;;;5014533;28;20033;-65
2021/12/16 10:24:32;;;;;;;19.63;10.88;;;11.00;99.90;;;;;;5012782;28;20459;-65
2021/12/16 10:27:26;;;;;;;21.83;11.38;;;11.20;99.90;;;;;;5013441;28;20049;-65
2021/12/16 10:29:58;;;;;;;16.25;9.82;;;11.20;99.90;;;;;;5012940;28;20033;-65
2021/12/16 10:32:39;;;;;;;14.95;9.48;;;11.30;99.90;;;;;;5013518;28;20436;-65
2021/12/16 10:35:10;;;;;;;17.40;10.13;;;11.30;99.90;;;;;;5012757;28;20041;-65
2021/12/16 10:37:40;;;;;;;15.15;9.15;;;11.30;99.90;;;;;;5013946;28;20408;-65
2021/12/16 10:40:50;;;;;;;15.52;8.98;;;11.30;99.90;;;;;;5014156;28;20033;-64
2021/12/16 10:43:43;;;;;;;17.10;10.05;;;11.30;99.90;;;;;;5016290;28;20745;-64
2021/12/16 10:46:16;;;;;;;12.00;7.55;;;11.40;99.90;;;;;;5014546;28;20033;-65
2021/12/16 10:48:48;;;;;;;13.98;8.05;;;11.40;99.90;;;;;;5016117;28;20401;-64
2021/12/16 10:51:22;;;;;;;12.18;6.97;;;11.40;99.90;;;;;;5016225;28;20572;-65
2021/12/16 10:54:04;;;;;;;10.20;6.45;;;11.40;99.90;;;;;;5017858;28;20421;-65
2021/12/16 10:56:35;;;;;;;13.40;6.50;;;11.40;99.90;;;;;;5018398;28;20400;-64
2021/12/16 10:59:14;;;;;;;9.68;6.07;;;11.40;99.90;;;;;;5015149;28;20575;-65
2021/12/16 11:01:44;;;;;;;9.00;5.43;;;11.40;99.90;;;;;;5017668;28;20064;-65
2021/12/16 11:04:14;;;;;;;9.23;5.50;;;11.50;99.90;;;;;;5016738;28;20558;-65
2021/12/16 11:06:57;;;;;;;12.98;6.03;;;11.50;99.90;;;;;;5017059;28;20029;-64
2021/12/16 11:09:34;;;;;;;13.10;6.68;;;11.50;99.90;;;;;;5016745;28;20504;-65
2021/12/16 11:12:16;;;;;;;9.77;5.63;;;11.50;99.90;;;;;;5017080;28;20890;-64
2021/12/16 11:14:49;;;;;;;13.73;7.50;;;11.60;99.90;;;;;;5016816;28;20467;-64
2021/12/16 11:17:16;;;;;;;11.98;6.90;;;11.60;99.90;;;;;;5017100;28;20037;-65
2021/12/16 11:19:55;;;;;;;11.90;6.10;;;11.60;99.90;;;;;;5017345;28;20056;-62
2021/12/16 11:22:31;;;;;;;11.93;7.05;;;11.60;99.90;;;;;;5017690;28;20557;-63
2021/12/16 11:25:09;;;;;;;10.57;6.10;;;11.60;99.90;;;;;;5016152;28;20045;-63
2021/12/16 11:27:36;;;;;;;11.95;5.95;;;11.60;99.80;;;;;;5019440;28;20059;-63
2021/12/16 11:30:26;;;;;;;9.60;5.47;;;11.70;99.90;;;;;;5015745;28;20053;-63
2021/12/16 11:32:54;;;;;;;8.73;5.22;;;11.70;99.50;;;;;;5021176;28;20492;-63
2021/12/16 11:35:25;;;;;;;8.20;5.60;;;11.80;99.60;;;;;;5017675;28;20598;-63
2021/12/16 11:37:51;;;;;;;8.15;5.43;;;11.80;99.40;;;;;;5016526;28;20436;-63
2021/12/16 11:40:18;;;;;;;9.77;6.05;;;11.80;99.20;;;;;;5014904;28;20037;-63
2021/12/16 11:43:05;;;;;;;11.50;6.47;;;11.80;99.40;;;;;;5016882;28;20037;-63
2021/12/16 11:45:38;;;;;;;11.57;5.53;;;11.90;99.30;;;;;;5015763;28;20569;-63
2021/12/16 11:48:06;;;;;;;7.88;5.43;;;11.90;99.20;;;;;;5017174;28;20060;-63
2021/12/16 11:50:40;;;;;;;8.45;5.15;;;12.00;99.20;;;;;;5016039;28;20040;-64
2021/12/16 11:53:10;;;;;;;7.28;5.60;;;12.00;99.20;;;;;;5014857;28;20052;-64
2021/12/16 11:55:38;;;;;;;8.23;4.72;;;12.10;99.20;;;;;;5015647;28;20033;-63
2021/12/16 11:58:05;;;;;;;8.05;4.95;;;12.20;99.10;;;;;;5016065;28;20092;-63
2021/12/16 12:00:35;;;;;;;9.70;5.35;;;12.10;99.00;;;;;;5015620;28;20035;-63
2021/12/16 12:03:21;;;;;;;10.98;5.78;;;12.10;98.90;;;;;;5016783;28;20397;-65
2021/12/16 12:05:50;;;;;;;8.30;5.75;;;12.20;98.90;;;;;;5014735;28;20428;-64
2021/12/16 12:08:26;;;;;;;11.88;6.13;;;12.20;98.80;;;;;;5017716;28;20044;-62
2021/12/16 12:11:19;;;;;;;12.07;5.15;;;12.10;98.60;;;;;;5031197;28;20038;-63
2021/12/16 12:14:01;;;;;;;8.98;5.68;;;12.10;98.60;;;;;;5032042;28;20108;-63
2021/12/16 12:16:34;;;;;;;8.27;5.03;;;12.10;98.50;;;;;;5032218;28;20069;-62
2021/12/16 12:19:16;;;;;;;8.07;5.05;;;12.10;98.30;;;;;;5027833;28;20063;-62
2021/12/16 12:21:54;;;;;;;8.00;3.92;;;12.10;98.10;;;;;;5019059;28;20056;-63
2021/12/16 12:24:32;;;;;;;6.20;4.00;;;12.00;98.00;;;;;;5015595;28;20095;-63
2021/12/16 12:27:00;;;;;;;7.13;3.78;;;12.10;98.20;;;;;;5017161;28;20037;-63
2021/12/16 12:29:30;;;;;;;8.15;4.35;;;12.10;98.10;;;;;;5015053;28;20021;-63
2021/12/16 12:32:05;;;;;;;8.48;4.05;;;12.10;98.00;;;;;;5017185;28;20049;-64
2021/12/16 12:34:32;;;;;;;7.32;3.83;;;12.10;97.80;;;;;;5020963;28;20018;-63
2021/12/16 12:37:01;;;;;;;8.15;4.15;;;12.00;97.70;;;;;;5014828;28;20044;-64
2021/12/16 12:39:31;;;;;;;6.15;4.65;;;11.90;97.70;;;;;;5013627;28;20044;-64
2021/12/16 12:41:57;;;;;;;6.10;3.80;;;11.90;97.60;;;;;;5014788;28;20029;-64
2021/12/16 12:44:23;;;;;;;6.45;3.63;;;11.90;97.70;;;;;;5016326;28;20039;-64
2021/12/16 12:46:50;;;;;;;6.47;4.28;;;11.90;97.80;;;;;;5016036;28;20029;-64
2021/12/16 12:49:23;;;;;;;7.35;4.40;;;11.90;97.80;;;;;;5014288;28;20036;-64
2021/12/16 12:51:50;;;;;;;7.57;3.92;;;11.90;97.60;;;;;;5016753;28;20057;-64
2021/12/16 12:54:20;;;;;;;6.32;3.25;;;12.00;97.60;;;;;;5012226;28;20053;-64
2021/12/16 12:56:47;;;;;;;5.85;2.95;;;12.00;97.40;;;;;;5028032;28;20022;-64
2021/12/16 12:59:15;;;;;;;8.45;3.55;;;12.00;97.20;;;;;;5012397;28;20033;-64
2021/12/16 13:01:54;;;;;;;6.68;3.83;;;11.80;97.20;;;;;;5014502;28;20025;-64
2021/12/16 13:04:33;;;;;;;7.13;4.18;;;11.90;97.30;;;;;;5012297;28;20083;-63
2021/12/16 13:07:07;;;;;;;6.03;3.22;;;11.90;97.20;;;;;;5013692;28;20043;-64
2021/12/16 13:09:35;;;;;;;5.80;2.83;;;11.90;97.30;;;;;;5013868;28;20726;-64
2021/12/16 13:12:27;;;;;;;8.20;3.33;;;11.90;97.30;;;;;;5013265;28;20045;-64
2021/12/16 13:15:03;;;;;;;4.90;3.03;;;11.80;97.10;;;;;;5014079;28;20072;-63
2021/12/16 13:28:38;;;;;;;5.15;3.05;;;11.60;97.10;;;;;;5014731;28;20017;-64
2021/12/16 13:31:26;;;;;;;6.63;3.35;;;11.60;97.10;;;;;;5012921;28;20408;-63
2021/12/16 13:33:57;;;;;;;7.35;3.67;;;11.70;97.20;;;;;;5014085;28;20125;-64
2021/12/16 13:36:47;;;;;;;9.63;3.67;;;11.60;97.20;;;;;;5017711;28;20025;-65
2021/12/16 13:39:19;;;;;;;11.55;4.07;;;11.70;97.20;;;;;;5017654;28;20057;-65
2021/12/16 13:41:58;;;;;;;6.43;3.10;;;11.60;96.90;;;;;;5030710;28;20033;-65
2021/12/16 13:44:51;;;;;;;5.53;2.85;;;11.50;97.00;;;;;;5031667;28;20040;-64
2021/12/16 13:59:54;;;;;;;7.07;3.05;;;11.50;97.30;;;;;;4998218;28;20057;-65
2021/12/16 14:01:57;;;;;;;5.97;3.08;;;11.60;97.20;;;;;;5013846;28;20021;-65
2021/12/16 14:07:50;;;;;;;9.52;3.65;;;11.60;97.20;;;;;;5013288;28;20040;-65
2021/12/16 14:10:20;;;;;;;7.93;3.40;;;11.60;97.10;;;;;;5013809;28;20064;-67
2021/12/16 14:14:07;;;;;;;8.60;3.55;;;11.60;97.10;;;;;;5013833;28;20053;-66
2021/12/16 14:25:04;;;;;;;8.65;3.60;;;11.30;97.10;;;;;;5017118;28;21878;-67
2021/12/16 14:36:41;;;;;;;7.85;3.10;;;11.40;97.10;;;;;;5016861;28;20102;-67
2021/12/16 14:42:04;;;;;;;4.68;2.85;;;11.30;97.10;;;;;;5008241;28;20037;-68
2021/12/16 14:47:29;;;;;;;7.00;2.63;;;11.20;97.10;;;;;;5016648;28;20104;-68
2021/12/16 14:49:55;;;;;;;5.85;3.67;;;11.10;97.20;;;;;;5015819;28;20045;-68
2021/12/16 14:52:28;;;;;;;6.93;3.03;;;11.00;97.10;;;;;;5016555;28;20038;-68
2021/12/16 14:55:00;;;;;;;6.13;3.53;;;11.00;97.20;;;;;;5016102;28;20053;-68
2021/12/16 14:57:37;;;;;;;7.78;3.60;;;11.00;97.30;;;;;;5016679;28;20060;-68
2021/12/16 15:00:18;;;;;;;7.85;3.20;;;11.00;97.30;;;;;;5016425;28;20579;-68
2021/12/16 15:02:46;;;;;;;7.88;4.18;;;10.90;97.30;;;;;;5016340;28;20125;-68
2021/12/16 15:05:35;;;;;;;8.77;3.85;;;10.90;97.40;;;;;;5032630;28;20443;-67
2021/12/16 15:08:16;;;;;;;11.13;3.35;;;10.90;97.50;;;;;;5033625;28;20034;-67
2021/12/16 15:10:42;;;;;;;6.18;3.60;;;10.80;97.50;;;;;;5028181;28;20040;-67
2021/12/16 15:13:16;;;;;;;7.68;3.45;;;10.80;97.50;;;;;;5033675;28;20030;-67
2021/12/16 15:34:00;;;;;;;7.68;3.65;;;10.60;97.70;;;;;;5030980;28;20048;-68
2021/12/16 15:38:20;;;;;;;10.20;3.80;;;10.50;97.90;;;;;;5024764;28;20037;-67
2021/12/16 15:42:46;;;;;;;12.02;4.00;;;10.50;97.90;;;;;;5036301;28;20034;-67
2021/12/16 15:43:51;;;;;;;11.02;3.30;;;10.50;98.00;;;;;;5013916;28;20496;-67
2021/12/16 15:46:17;;;;;;;7.47;3.63;;;10.40;98.00;;;;;;5031612;28;20034;-66
2021/12/16 15:48:47;;;;;;;10.13;4.30;;;10.40;98.10;;;;;;5045551;28;20017;-67
2021/12/16 15:51:12;;;;;;;9.60;3.95;;;10.30;98.10;;;;;;5034556;28;20183;-68
2021/12/16 15:53:41;;;;;;;9.43;4.30;;;10.30;98.20;;;;;;5033303;28;20101;-67
2021/12/16 15:56:19;;;;;;;8.98;4.25;;;10.30;98.20;;;;;;5034315;28;20033;-67
2021/12/16 15:58:52;;;;;;;7.68;3.42;;;10.30;98.30;;;;;;5028795;28;20049;-65